Terminal Aerodrome Forecast
Issued by NWS

Home | Current Version | Previous Version | Text Only | Print | Product List | Glossary On
Versions: 1 2 3 4 5 6 7 8 9 10 11 12 13 14 15 16 17 18 19
000
FTUS41 KPBZ 162300
TAFDUJ
TAF
KDUJ 162335Z 1700/1724 33003KT P6SM SKC
     FM170700 00000KT 4SM BR SKC
     FM170900 00000KT 1SM BR SCT002
     FM171400 26005KT P6SM SCT050=

USA.gov is the U.S. government's official web portal to all federal, state and local government web resources and services.